Wolf, WY (82844)

6:52 PM MST on November 27, 2014 (GMT -0700)
HADS RAPID CREEK (RAIN) NEAR BIG HORN WY US | Change Station
CLOSE
Current Station
Personal Weather Station
Location: Wolf, WY
Elevation: 7048 ft
Nearby Weather Stations

Elev 7048 ft 44.64 °N, 107.18 °W | Updated 1 hour ago

Partly Cloudy
Partly Cloudy
42 °F
Feels Like 42 °F
N
Wind Variable Wind from North
Gusts 0.0 mph

Today
High -- | Low -- °F
--% Chance of Precip.
Yesterday
High -- | Low -- °F
Precip. -- in
7:21 AM 4:31 PM
Waxing Crescent, 35% visible
Pressure 29.94 in
Visibility 10.0 miles
Clouds Clear
Windchill 42 °F
Dew Point Not available.
Humidity Not available.
Rainfall 0.22 in
Snow Depth Not available.
UV 0 out of 12
Pollen .10 out of 12
Air Quality Not available.
Flu Activity Not available.
METAR KSHR 280053Z AUTO 07004KT 10SM CLR 09/M03 A2987 RMK AO2 SLP136 T00891033 TSNO

More Conditions Fewer Conditions

Pressure 29.94 in
Visibility 10.0 miles
Clouds Clear
Windchill 42 °F
Dew Point Not available.
Humidity Not available.
Rainfall 0.22 in
Snow Depth Not available.
UV 0 out of 12
Pollen .10 out of 12
Air Quality Not available.
Flu Activity Not available.
METAR KSHR 280053Z AUTO 07004KT 10SM CLR 09/M03 A2987 RMK AO2 SLP136 T00891033 TSNO

More Conditions Fewer Conditions

10-Day Weather Forecast

Almanac

Astronomy

Nov. 27, 2014 Rise Set
Actual Time
Civil Twilight
Nautical Twilight
Astronomical Twilight
Moon
Length of Visible Light
Length of Day
Tomorrow will be .
, % of the Moon is Illuminated

Today's Extremes

State Highs State Lows

Community

WunderPhotos

Upload Photos

1,774,151 photos uploaded!

WunderBlogs® & News

Nearby

Air Quality

  Air Quality AQ Index Pollutant
Not available.

Snow Depth

Station Depth Elevation

Earthquake Activity

City Distance Mag. Time & Date
Minimum magnitude displayed is 2.5.

Coastal Water Temperatures

Place Temperature

Nearby Weather Stations